Deneb — CUQC — position and weather

sailwx.info

Track history (hours):
 
Tides and Currents Weather Stations Pressure Air Temp Water Temp Dewpoint Dewpoint Depression Visibility Wind Speed Wind Dir Waves Ship Positions

Deneb

Last reported at 2018-May-16 13:39 UTC. Time now 2018-May-20 21:53 UTC.
Position N 39°12' W 009°27'.

Length 24 m.

Type: Ship. MMSI: 263486000.

Date/timePositionNaut miles runAvg speedWind from/ knotsBaromVisibWave heightAir tempDewpointWater temp
2018-May-16 13:39N 39°12' W 009°27'1 8.0
2018-May-16 13:30N 39°11' W 009°28'4 8.2
2018-May-16 13:00N 39°07' W 009°30'4 8.3
2018-May-16 12:30N 39°03' W 009°32'4 8.0
2018-May-16 12:00N 38°59' W 009°34'1 2.7
2018-May-16 11:30N 38°58' W 009°33'2 3.4
2018-May-16 11:00N 38°56' W 009°33'2 3.5
2018-May-16 10:30N 38°55' W 009°35'2 3.6
2018-May-16 10:00N 38°54' W 009°37'2 3.6
2018-May-16 09:30N 38°54' W 009°39'2 3.6
2018-May-16 09:01N 38°53' W 009°42'1 2.3
2018-May-16 08:30N 38°54' W 009°40'4 7.7
2018-May-16 08:00N 38°56' W 009°36'1 2.1
2018-May-16 07:31N 38°55' W 009°36'2 3.3
2018-May-16 07:01N 38°53' W 009°37'2 3.3
2018-May-16 06:31N 38°52' W 009°38'2 3.2
2018-May-16 06:00N 38°50' W 009°39'2 3.0
2018-May-16 05:30N 38°49' W 009°39'1 2.9
2018-May-16 05:00N 38°47' W 009°38'0 0.7
2018-May-16 04:30N 38°47' W 009°38'2 4.9
2018-May-16 04:00N 38°45' W 009°36'4 7.2
2018-May-16 03:31N 38°43' W 009°33'4 7.7
2018-May-16 03:00N 38°39' W 009°30'4 8.0
2018-May-16 02:31N 38°36' W 009°27'4 8.5
2018-May-16 02:00N 38°33' W 009°24'4 8.6
2018-May-16 01:30N 38°30' W 009°20'4 8.4
2018-May-16 01:00N 38°26' W 009°17'4 8.0
2018-May-16 00:30N 38°23' W 009°14'4 7.9
2018-May-16 00:00N 38°20' W 009°12'4 7.8
2018-May-15 23:30N 38°16' W 009°10'4 8.0
2018-May-15 23:00N 38°12' W 009°08'4 8.0
2018-May-15 22:30N 38°08' W 009°07'4 8.1
2018-May-15 22:00N 38°05' W 009°05'4 8.1
2018-May-15 21:30N 38°01' W 009°04'4 7.8
2018-May-15 21:01N 37°57' W 009°02'4 7.2
2018-May-15 20:30N 37°53' W 009°01'3 6.9
2018-May-15 20:00N 37°50' W 009°00'3 6.8
2018-May-15 19:30N 37°47' W 008°59'3 6.7
2018-May-15 19:00N 37°43' W 008°59'3 7.0
2018-May-15 18:30N 37°40' W 008°58'3 6.9
2018-May-15 18:00N 37°37' W 008°57'4 7.2
2018-May-15 17:30N 37°33' W 008°57'4 7.3
2018-May-15 17:00N 37°29' W 008°58'4 7.3
2018-May-15 16:30N 37°26' W 008°59'30 4.6
2018-May-15 09:59N 36°58' W 008°45'1 2.9
2018-May-15 09:29N 36°57' W 008°46'3 3.8
2018-May-15 08:43N 36°57' W 008°50'1 3.8
2018-May-15 08:30N 36°56' W 008°50'2 3.8
2018-May-15 07:55N 36°55' W 008°53'8 2.9
2018-May-15 05:18N 36°57' W 008°44'1 3.8
2018-May-15 04:58N 36°58' W 008°43'3 5.0
2018-May-15 04:24N 37°00' W 008°40'3 6.6
2018-May-15 03:57N 37°02' W 008°38'3 6.6
2018-May-15 03:30N 37°04' W 008°35'3 6.9
2018-May-15 03:00N 37°07' W 008°32'1 2.5
2018-May-15 02:27N 37°08' W 008°32'  
2018-May-11 15:19N 37°08' W 008°32'0 0.0
2018-May-11 14:57N 37°08' W 008°32'0 0.0
2018-May-11 14:30N 37°08' W 008°32'0 0.0
2018-May-11 14:00N 37°08' W 008°32'0 0.0
2018-May-11 13:30N 37°08' W 008°32'0 0.0
2018-May-11 13:00N 37°08' W 008°32'0 0.0
2018-May-11 12:24N 37°08' W 008°32'0 0.0
2018-May-11 12:00N 37°08' W 008°32'0 0.0
2018-May-11 11:30N 37°08' W 008°32'0 0.0
2018-May-11 10:56N 37°08' W 008°32'0 0.0
2018-May-11 10:29N 37°08' W 008°32'0 0.0
2018-May-11 09:56N 37°08' W 008°32'1 2.0
2018-May-11 09:30N 37°07' W 008°31'3 6.9
2018-May-11 09:00N 37°05' W 008°35'4 8.7
2018-May-11 08:30N 37°03' W 008°40'4 8.8
2018-May-11 08:00N 36°60' W 008°44'4 8.8
2018-May-11 07:30N 36°57' W 008°48'2 3.0
2018-May-11 06:59N 36°56' W 008°50'12 2.3
2018-May-11 01:57N 37°04' W 008°38'4 9.2
2018-May-11 01:28N 37°06' W 008°33'3 4.0
2018-May-11 00:49N 37°08' W 008°32'0 0.0
2018-May-11 00:12N 37°08' W 008°32'0 0.0
2018-May-11 00:00N 37°08' W 008°32'0 0.0
2018-May-10 23:15N 37°08' W 008°32'0 0.0
2018-May-10 22:51N 37°08' W 008°32'0 0.0
2018-May-10 22:30N 37°08' W 008°32'0 0.0
2018-May-10 21:55N 37°08' W 008°32'0 0.0
2018-May-10 21:27N 37°08' W 008°32'0 0.0
2018-May-10 20:57N 37°08' W 008°32'0 0.0
2018-May-10 19:31N 37°08' W 008°32'0 0.0
2018-May-10 19:18N 37°08' W 008°32'0 0.0
2018-May-10 18:52N 37°08' W 008°32'0 0.0
2018-May-10 16:02N 37°08' W 008°32'0 0.0
2018-May-10 15:56N 37°08' W 008°32'0 0.0
2018-May-10 15:26N 37°08' W 008°32'0 1.1
2018-May-10 15:00N 37°08' W 008°32'4 8.1
2018-May-10 14:30N 37°03' W 008°31'4 8.3
2018-May-10 14:00N 36°59' W 008°31'4 8.3
2018-May-10 13:30N 36°55' W 008°30'4 8.2
2018-May-10 13:00N 36°51' W 008°29'2 2.2
2018-May-10 11:57N 36°51' W 008°27'4 3.6
2018-May-10 10:45N 36°50' W 008°21'5 3.2
2018-May-10 09:19N 36°54' W 008°18'1 3.7
2018-May-10 09:00N 36°54' W 008°16'2 3.8
2018-May-10 08:29N 36°54' W 008°14'1 2.4
2018-May-10 07:59N 36°54' W 008°12'3 5.5
2018-May-10 07:28N 36°51' W 008°14'20 3.1
2018-May-10 00:52N 37°04' W 008°33'1 3.1
2018-May-10 00:30N 37°05' W 008°32'3 4.6
2018-May-09 23:56N 37°08' W 008°32'0 0.0
2018-May-09 23:25N 37°08' W 008°32'0 0.0
2018-May-09 22:59N 37°08' W 008°32'0 0.0
2018-May-09 22:25N 37°08' W 008°32'0 0.0
2018-May-09 21:56N 37°08' W 008°32'0 0.0
2018-May-09 19:47N 37°08' W 008°32'0 0.0
2018-May-09 19:28N 37°08' W 008°32'0 0.0
2018-May-09 18:58N 37°08' W 008°32'0 0.0
2018-May-09 18:29N 37°08' W 008°32'0 0.0
2018-May-09 17:59N 37°08' W 008°32'0 0.0
2018-May-09 16:36N 37°08' W 008°32'0 0.0
2018-May-09 16:28N 37°08' W 008°32'0 0.0
2018-May-09 15:08N 37°08' W 008°32'0 0.0
2018-May-09 15:00N 37°08' W 008°32'0 0.0
2018-May-09 14:30N 37°08' W 008°32'0 0.1
2018-May-09 14:00N 37°08' W 008°32'4 7.4
2018-May-09 13:30N 37°04' W 008°32'4 8.1
2018-May-09 13:00N 37°00' W 008°32'1 2.6
2018-May-09 12:30N 36°59' W 008°32'1 2.5
2018-May-09 11:57N 36°58' W 008°32'2 3.7
2018-May-09 11:30N 36°57' W 008°30'4 8.2
2018-May-09 11:00N 36°56' W 008°25'11 0.9
2018-May-08 23:22N 37°06' W 008°32'2 4.9
2018-May-08 22:56N 37°08' W 008°32'0 0.0
2018-May-08 22:26N 37°08' W 008°32'0 0.0
2018-May-08 21:54N 37°08' W 008°32'0 0.0
2018-May-08 21:30N 37°08' W 008°32'0 0.0
2018-May-08 20:59N 37°08' W 008°32'0 0.0
2018-May-08 20:30N 37°08' W 008°32'0 0.0
2018-May-08 19:56N 37°08' W 008°32'0 0.0
2018-May-08 19:30N 37°08' W 008°32'0 0.0
2018-May-08 18:58N 37°08' W 008°32'0 0.0
2018-May-08 18:29N 37°08' W 008°32'0 0.0
2018-May-08 17:59N 37°08' W 008°32'0 0.0
2018-May-08 14:32N 37°08' W 008°32'0 6.1
2018-May-08 14:29N 37°08' W 008°32'4 8.3
2018-May-08 13:57N 37°04' W 008°29'4 8.9
2018-May-08 13:30N 37°00' W 008°26'5 8.7
2018-May-08 12:57N 36°57' W 008°23'2 2.1
2018-May-08 12:09N 36°56' W 008°25'2 3.8
2018-May-08 11:41N 36°56' W 008°27'1 4.3
2018-May-08 11:30N 36°57' W 008°28'2 4.3
2018-May-08 10:58N 36°58' W 008°25'2 4.0
2018-May-08 10:30N 36°58' W 008°23'2 4.0
2018-May-08 09:56N 36°57' W 008°20'2 4.0
2018-May-08 09:29N 36°56' W 008°18'1 1.6
2018-May-08 08:55N 36°56' W 008°17'2 0.5
2018-May-08 05:11N 36°57' W 008°17'0 0.6
2018-May-08 04:50N 36°57' W 008°17'1 3.2
2018-May-08 04:29N 36°58' W 008°18'3 6.7
2018-May-08 03:57N 37°00' W 008°22'4 8.8
2018-May-08 03:29N 37°03' W 008°26'4 8.7
2018-May-08 02:59N 37°05' W 008°30'3 5.7
2018-May-08 02:26N 37°08' W 008°32'0 0.0
2018-May-08 01:55N 37°08' W 008°32'0 0.0
2018-May-08 01:28N 37°08' W 008°32'0 0.0
2018-May-08 00:58N 37°08' W 008°32'0 0.0
2018-May-08 00:07N 37°08' W 008°32'0 0.0
2018-May-07 23:56N 37°08' W 008°32'0 0.0
2018-May-07 23:29N 37°08' W 008°32'0 0.0
2018-May-07 22:57N 37°08' W 008°32'0 0.0
2018-May-07 21:55N 37°08' W 008°32'0 0.0
2018-May-07 18:32N 37°08' W 008°32'0 0.0
2018-May-07 18:05N 37°08' W 008°32'0 0.0
2018-May-07 17:47N 37°08' W 008°32'0 0.0
2018-May-07 17:14N 37°08' W 008°32'0 0.0
2018-May-07 16:33N 37°08' W 008°32'0 0.1
2018-May-07 16:27N 37°08' W 008°32'0 0.0
2018-May-07 15:58N 37°08' W 008°32'0 0.1
2018-May-07 15:29N 37°08' W 008°32'0 0.0
2018-May-07 14:59N 37°08' W 008°32'0 0.0
2018-May-07 14:25N 37°08' W 008°32'0 0.0
2018-May-07 13:58N 37°08' W 008°32'0 0.0
2018-May-07 13:29N 37°08' W 008°32'0 0.0
2018-May-07 12:56N 37°08' W 008°32'0 0.0
2018-May-07 12:28N 37°08' W 008°32'0 0.0
2018-May-07 11:58N 37°08' W 008°32'1 2.0
2018-May-07 11:31N 37°07' W 008°32'4 8.1
2018-May-07 11:00N 37°04' W 008°29'4 8.2
2018-May-07 10:31N 37°01' W 008°25'4 8.2
2018-May-07 10:00N 36°59' W 008°21'4 7.1
2018-May-07 09:30N 36°57' W 008°17'1 2.5
2018-May-07 08:59N 36°56' W 008°17'2 3.7
2018-May-07 08:28N 36°55' W 008°19'2 3.7
2018-May-07 07:59N 36°53' W 008°21'2 3.8
2018-May-07 07:30N 36°52' W 008°23'4 3.3
2018-May-07 06:13N 36°54' W 008°18'1 3.9
2018-May-07 06:00N 36°54' W 008°17'2 3.8
2018-May-07 05:28N 36°56' W 008°17'1 3.1
2018-May-07 05:01N 36°58' W 008°17'3 5.5
2018-May-07 04:28N 36°60' W 008°20'3 6.2
2018-May-07 04:00N 37°01' W 008°23'4 7.2
2018-May-07 03:30N 37°03' W 008°27'3 7.1
2018-May-07 03:00N 37°05' W 008°30'3 5.7
2018-May-07 02:29N 37°08' W 008°32'0 0.0
2018-May-07 01:54N 37°08' W 008°32'0 0.0
2018-May-07 01:24N 37°08' W 008°32'0 0.0
2018-May-07 01:00N 37°08' W 008°32'0 0.0
2018-May-07 00:27N 37°08' W 008°32'0 0.0
2018-May-06 23:57N 37°08' W 008°32'0 0.0
2018-May-06 23:26N 37°08' W 008°32'0 0.0
2018-May-06 22:57N 37°08' W 008°32'0 0.0
2018-May-06 22:27N 37°08' W 008°32'0 0.1
2018-May-06 21:58N 37°08' W 008°32'3 6.7
2018-May-06 21:30N 37°05' W 008°33'4 8.1
2018-May-06 21:00N 37°03' W 008°37'4 8.1
2018-May-06 20:30N 37°00' W 008°41'4 6.2
2018-May-06 19:55N 36°58' W 008°45'2 3.7
2018-May-06 19:30N 36°58' W 008°47'3 3.7
2018-May-06 18:46N 36°57' W 008°50'2 3.6
2018-May-06 18:19N 36°55' W 008°51'10 4.8
2018-May-06 16:08N 36°57' W 008°38'1 8.3
2018-May-06 15:58N 36°58' W 008°37'1 3.0
2018-May-06 15:29N 36°57' W 008°35'2 3.7
2018-May-06 15:00N 36°55' W 008°35'2 3.7
2018-May-06 14:30N 36°54' W 008°37'2 3.7
2018-May-06 14:00N 36°54' W 008°39'  
Track history (hours):
 
Tides and Currents Weather Stations Pressure Air Temp Water Temp Dewpoint Dewpoint Depression Visibility Wind Speed Wind Dir Waves Ship Positions

Deneb

Last reported at 2018-May-16 13:39 UTC. Time now 2018-May-20 21:53 UTC.
Position N 39°12' W 009°27'.

Length 24 m.

Type: Ship. MMSI: 263486000.

Date/timePositionNaut miles runAvg speedWind from/ knotsBaromVisibWave heightAir tempDewpointWater temp
2018-May-16 13:39N 39°12' W 009°27'1 8.0
2018-May-16 13:30N 39°11' W 009°28'4 8.2
2018-May-16 13:00N 39°07' W 009°30'4 8.3
2018-May-16 12:30N 39°03' W 009°32'4 8.0
2018-May-16 12:00N 38°59' W 009°34'1 2.7
2018-May-16 11:30N 38°58' W 009°33'2 3.4
2018-May-16 11:00N 38°56' W 009°33'2 3.5
2018-May-16 10:30N 38°55' W 009°35'2 3.6
2018-May-16 10:00N 38°54' W 009°37'2 3.6
2018-May-16 09:30N 38°54' W 009°39'2 3.6
2018-May-16 09:01N 38°53' W 009°42'1 2.3
2018-May-16 08:30N 38°54' W 009°40'4 7.7
2018-May-16 08:00N 38°56' W 009°36'1 2.1
2018-May-16 07:31N 38°55' W 009°36'2 3.3
2018-May-16 07:01N 38°53' W 009°37'2 3.3
2018-May-16 06:31N 38°52' W 009°38'2 3.2
2018-May-16 06:00N 38°50' W 009°39'2 3.0
2018-May-16 05:30N 38°49' W 009°39'1 2.9
2018-May-16 05:00N 38°47' W 009°38'0 0.7
2018-May-16 04:30N 38°47' W 009°38'2 4.9
2018-May-16 04:00N 38°45' W 009°36'4 7.2
2018-May-16 03:31N 38°43' W 009°33'4 7.7
2018-May-16 03:00N 38°39' W 009°30'4 8.0
2018-May-16 02:31N 38°36' W 009°27'4 8.5
2018-May-16 02:00N 38°33' W 009°24'4 8.6
2018-May-16 01:30N 38°30' W 009°20'4 8.4
2018-May-16 01:00N 38°26' W 009°17'4 8.0
2018-May-16 00:30N 38°23' W 009°14'4 7.9
2018-May-16 00:00N 38°20' W 009°12'4 7.8
2018-May-15 23:30N 38°16' W 009°10'4 8.0
2018-May-15 23:00N 38°12' W 009°08'4 8.0
2018-May-15 22:30N 38°08' W 009°07'4 8.1
2018-May-15 22:00N 38°05' W 009°05'4 8.1
2018-May-15 21:30N 38°01' W 009°04'4 7.8
2018-May-15 21:01N 37°57' W 009°02'4 7.2
2018-May-15 20:30N 37°53' W 009°01'3 6.9
2018-May-15 20:00N 37°50' W 009°00'3 6.8
2018-May-15 19:30N 37°47' W 008°59'3 6.7
2018-May-15 19:00N 37°43' W 008°59'3 7.0
2018-May-15 18:30N 37°40' W 008°58'3 6.9
2018-May-15 18:00N 37°37' W 008°57'4 7.2
2018-May-15 17:30N 37°33' W 008°57'4 7.3
2018-May-15 17:00N 37°29' W 008°58'4 7.3
2018-May-15 16:30N 37°26' W 008°59'30 4.6
2018-May-15 09:59N 36°58' W 008°45'1 2.9
2018-May-15 09:29N 36°57' W 008°46'3 3.8
2018-May-15 08:43N 36°57' W 008°50'1 3.8
2018-May-15 08:30N 36°56' W 008°50'2 3.8
2018-May-15 07:55N 36°55' W 008°53'8 2.9
2018-May-15 05:18N 36°57' W 008°44'1 3.8
2018-May-15 04:58N 36°58' W 008°43'3 5.0
2018-May-15 04:24N 37°00' W 008°40'3 6.6
2018-May-15 03:57N 37°02' W 008°38'3 6.6
2018-May-15 03:30N 37°04' W 008°35'3 6.9
2018-May-15 03:00N 37°07' W 008°32'1 2.5
2018-May-15 02:27N 37°08' W 008°32'  
2018-May-11 15:19N 37°08' W 008°32'0 0.0
2018-May-11 14:57N 37°08' W 008°32'0 0.0
2018-May-11 14:30N 37°08' W 008°32'0 0.0
2018-May-11 14:00N 37°08' W 008°32'0 0.0
2018-May-11 13:30N 37°08' W 008°32'0 0.0
2018-May-11 13:00N 37°08' W 008°32'0 0.0
2018-May-11 12:24N 37°08' W 008°32'0 0.0
2018-May-11 12:00N 37°08' W 008°32'0 0.0
2018-May-11 11:30N 37°08' W 008°32'0 0.0
2018-May-11 10:56N 37°08' W 008°32'0 0.0
2018-May-11 10:29N 37°08' W 008°32'0 0.0
2018-May-11 09:56N 37°08' W 008°32'1 2.0
2018-May-11 09:30N 37°07' W 008°31'3 6.9
2018-May-11 09:00N 37°05' W 008°35'4 8.7
2018-May-11 08:30N 37°03' W 008°40'4 8.8
2018-May-11 08:00N 36°60' W 008°44'4 8.8
2018-May-11 07:30N 36°57' W 008°48'2 3.0
2018-May-11 06:59N 36°56' W 008°50'12 2.3
2018-May-11 01:57N 37°04' W 008°38'4 9.2
2018-May-11 01:28N 37°06' W 008°33'3 4.0
2018-May-11 00:49N 37°08' W 008°32'0 0.0
2018-May-11 00:12N 37°08' W 008°32'0 0.0
2018-May-11 00:00N 37°08' W 008°32'0 0.0
2018-May-10 23:15N 37°08' W 008°32'0 0.0
2018-May-10 22:51N 37°08' W 008°32'0 0.0
2018-May-10 22:30N 37°08' W 008°32'0 0.0
2018-May-10 21:55N 37°08' W 008°32'0 0.0
2018-May-10 21:27N 37°08' W 008°32'0 0.0
2018-May-10 20:57N 37°08' W 008°32'0 0.0
2018-May-10 19:31N 37°08' W 008°32'0 0.0
2018-May-10 19:18N 37°08' W 008°32'0 0.0
2018-May-10 18:52N 37°08' W 008°32'0 0.0
2018-May-10 16:02N 37°08' W 008°32'0 0.0
2018-May-10 15:56N 37°08' W 008°32'0 0.0
2018-May-10 15:26N 37°08' W 008°32'0 1.1
2018-May-10 15:00N 37°08' W 008°32'4 8.1
2018-May-10 14:30N 37°03' W 008°31'4 8.3
2018-May-10 14:00N 36°59' W 008°31'4 8.3
2018-May-10 13:30N 36°55' W 008°30'4 8.2
2018-May-10 13:00N 36°51' W 008°29'2 2.2
2018-May-10 11:57N 36°51' W 008°27'4 3.6
2018-May-10 10:45N 36°50' W 008°21'5 3.2
2018-May-10 09:19N 36°54' W 008°18'1 3.7
2018-May-10 09:00N 36°54' W 008°16'2 3.8
2018-May-10 08:29N 36°54' W 008°14'1 2.4
2018-May-10 07:59N 36°54' W 008°12'3 5.5
2018-May-10 07:28N 36°51' W 008°14'20 3.1
2018-May-10 00:52N 37°04' W 008°33'1 3.1
2018-May-10 00:30N 37°05' W 008°32'3 4.6
2018-May-09 23:56N 37°08' W 008°32'0 0.0
2018-May-09 23:25N 37°08' W 008°32'0 0.0
2018-May-09 22:59N 37°08' W 008°32'0 0.0
2018-May-09 22:25N 37°08' W 008°32'0 0.0
2018-May-09 21:56N 37°08' W 008°32'0 0.0
2018-May-09 19:47N 37°08' W 008°32'0 0.0
2018-May-09 19:28N 37°08' W 008°32'0 0.0
2018-May-09 18:58N 37°08' W 008°32'0 0.0
2018-May-09 18:29N 37°08' W 008°32'0 0.0
2018-May-09 17:59N 37°08' W 008°32'0 0.0
2018-May-09 16:36N 37°08' W 008°32'0 0.0
2018-May-09 16:28N 37°08' W 008°32'0 0.0
2018-May-09 15:08N 37°08' W 008°32'0 0.0
2018-May-09 15:00N 37°08' W 008°32'0 0.0
2018-May-09 14:30N 37°08' W 008°32'0 0.1
2018-May-09 14:00N 37°08' W 008°32'4 7.4
2018-May-09 13:30N 37°04' W 008°32'4 8.1
2018-May-09 13:00N 37°00' W 008°32'1 2.6
2018-May-09 12:30N 36°59' W 008°32'1 2.5
2018-May-09 11:57N 36°58' W 008°32'2 3.7
2018-May-09 11:30N 36°57' W 008°30'4 8.2
2018-May-09 11:00N 36°56' W 008°25'11 0.9
2018-May-08 23:22N 37°06' W 008°32'2 4.9
2018-May-08 22:56N 37°08' W 008°32'0 0.0
2018-May-08 22:26N 37°08' W 008°32'0 0.0
2018-May-08 21:54N 37°08' W 008°32'0 0.0
2018-May-08 21:30N 37°08' W 008°32'0 0.0
2018-May-08 20:59N 37°08' W 008°32'0 0.0
2018-May-08 20:30N 37°08' W 008°32'0 0.0
2018-May-08 19:56N 37°08' W 008°32'0 0.0
2018-May-08 19:30N 37°08' W 008°32'0 0.0
2018-May-08 18:58N 37°08' W 008°32'0 0.0
2018-May-08 18:29N 37°08' W 008°32'0 0.0
2018-May-08 17:59N 37°08' W 008°32'0 0.0
2018-May-08 14:32N 37°08' W 008°32'0 6.1
2018-May-08 14:29N 37°08' W 008°32'4 8.3
2018-May-08 13:57N 37°04' W 008°29'4 8.9
2018-May-08 13:30N 37°00' W 008°26'5 8.7
2018-May-08 12:57N 36°57' W 008°23'2 2.1
2018-May-08 12:09N 36°56' W 008°25'2 3.8
2018-May-08 11:41N 36°56' W 008°27'1 4.3
2018-May-08 11:30N 36°57' W 008°28'2 4.3
2018-May-08 10:58N 36°58' W 008°25'2 4.0
2018-May-08 10:30N 36°58' W 008°23'2 4.0
2018-May-08 09:56N 36°57' W 008°20'2 4.0
2018-May-08 09:29N 36°56' W 008°18'1 1.6
2018-May-08 08:55N 36°56' W 008°17'2 0.5
2018-May-08 05:11N 36°57' W 008°17'0 0.6
2018-May-08 04:50N 36°57' W 008°17'1 3.2
2018-May-08 04:29N 36°58' W 008°18'3 6.7
2018-May-08 03:57N 37°00' W 008°22'4 8.8
2018-May-08 03:29N 37°03' W 008°26'4 8.7
2018-May-08 02:59N 37°05' W 008°30'3 5.7
2018-May-08 02:26N 37°08' W 008°32'0 0.0
2018-May-08 01:55N 37°08' W 008°32'0 0.0
2018-May-08 01:28N 37°08' W 008°32'0 0.0
2018-May-08 00:58N 37°08' W 008°32'0 0.0
2018-May-08 00:07N 37°08' W 008°32'0 0.0
2018-May-07 23:56N 37°08' W 008°32'0 0.0
2018-May-07 23:29N 37°08' W 008°32'0 0.0
2018-May-07 22:57N 37°08' W 008°32'0 0.0
2018-May-07 21:55N 37°08' W 008°32'0 0.0
2018-May-07 18:32N 37°08' W 008°32'0 0.0
2018-May-07 18:05N 37°08' W 008°32'0 0.0
2018-May-07 17:47N 37°08' W 008°32'0 0.0
2018-May-07 17:14N 37°08' W 008°32'0 0.0
2018-May-07 16:33N 37°08' W 008°32'0 0.1
2018-May-07 16:27N 37°08' W 008°32'0 0.0
2018-May-07 15:58N 37°08' W 008°32'0 0.1
2018-May-07 15:29N 37°08' W 008°32'0 0.0
2018-May-07 14:59N 37°08' W 008°32'0 0.0
2018-May-07 14:25N 37°08' W 008°32'0 0.0
2018-May-07 13:58N 37°08' W 008°32'0 0.0
2018-May-07 13:29N 37°08' W 008°32'0 0.0
2018-May-07 12:56N 37°08' W 008°32'0 0.0
2018-May-07 12:28N 37°08' W 008°32'0 0.0
2018-May-07 11:58N 37°08' W 008°32'1 2.0
2018-May-07 11:31N 37°07' W 008°32'4 8.1
2018-May-07 11:00N 37°04' W 008°29'4 8.2
2018-May-07 10:31N 37°01' W 008°25'4 8.2
2018-May-07 10:00N 36°59' W 008°21'4 7.1
2018-May-07 09:30N 36°57' W 008°17'1 2.5
2018-May-07 08:59N 36°56' W 008°17'2 3.7
2018-May-07 08:28N 36°55' W 008°19'2 3.7
2018-May-07 07:59N 36°53' W 008°21'2 3.8
2018-May-07 07:30N 36°52' W 008°23'4 3.3
2018-May-07 06:13N 36°54' W 008°18'1 3.9
2018-May-07 06:00N 36°54' W 008°17'2 3.8
2018-May-07 05:28N 36°56' W 008°17'1 3.1
2018-May-07 05:01N 36°58' W 008°17'3 5.5
2018-May-07 04:28N 36°60' W 008°20'3 6.2
2018-May-07 04:00N 37°01' W 008°23'4 7.2
2018-May-07 03:30N 37°03' W 008°27'3 7.1
2018-May-07 03:00N 37°05' W 008°30'3 5.7
2018-May-07 02:29N 37°08' W 008°32'0 0.0
2018-May-07 01:54N 37°08' W 008°32'0 0.0
2018-May-07 01:24N 37°08' W 008°32'0 0.0
2018-May-07 01:00N 37°08' W 008°32'0 0.0
2018-May-07 00:27N 37°08' W 008°32'0 0.0
2018-May-06 23:57N 37°08' W 008°32'0 0.0
2018-May-06 23:26N 37°08' W 008°32'0 0.0
2018-May-06 22:57N 37°08' W 008°32'0 0.0
2018-May-06 22:27N 37°08' W 008°32'0 0.1
2018-May-06 21:58N 37°08' W 008°32'3 6.7
2018-May-06 21:30N 37°05' W 008°33'4 8.1
2018-May-06 21:00N 37°03' W 008°37'4 8.1
2018-May-06 20:30N 37°00' W 008°41'4 6.2
2018-May-06 19:55N 36°58' W 008°45'2 3.7
2018-May-06 19:30N 36°58' W 008°47'3 3.7
2018-May-06 18:46N 36°57' W 008°50'2 3.6
2018-May-06 18:19N 36°55' W 008°51'10 4.8
2018-May-06 16:08N 36°57' W 008°38'1 8.3
2018-May-06 15:58N 36°58' W 008°37'1 3.0
2018-May-06 15:29N 36°57' W 008°35'2 3.7
2018-May-06 15:00N 36°55' W 008°35'2 3.7
2018-May-06 14:30N 36°54' W 008°37'2 3.7
2018-May-06 14:00N 36°54' W 008°39'  

Dump ship's entire track history